SBLO

Details ICAO SBLO (LDB)
Name Londrina
Region Brazil
Timezone America/Sao_Paulo (UTC-3.0)
Plans Departing 79
Arriving 67
Stats Elevation 1,867 ft / 569 m (AMSL)
Location -23.333624° -51.130072°
Runways 1
Magnetic Variation 19.139° W
Sunrise 2018-05-24 09:56:34 UTC / 2018-05-24 06:56:34 Local
Sunset 2018-05-24 20:49:03 UTC / 2018-05-24 17:49:03 Local
Advertisement - Login to hide

Runways

ID Width Length Bearing (true) Bearing (mag) Surface Threshold Offset Overrun Length
13 148 ft / 45 m 6,926 ft / 2,111 m 110.29° 129.43° Asphalt 975 ft / 297 m 0 ft / 0 m
31 148 ft / 45 m 6,926 ft / 2,111 m 290.28° 309.42° Asphalt 0 ft / 0 m 100 ft / 30 m

Map

Weather


0- 5 10 15 20 25 30 35+ Temperature / ° C

Clouds and Precipitation
Forecast for 2018-05-24 00:00 UTC. Updated 5 hours ago

Ground ~20,000 ft ~40,000 ft Winds

METAR

SBLO 240400Z 15005KT CAVOK 15/11 Q1024

TAF

TAF SBLO 232130Z 2400/2412 00000KT CAVOK TX19/2400Z TN13/2408Z BECMG 2406/2408 15005KT RMK PDW

Frequencies

Recorded 127.67 MHz ATIS
Approach 129.70 MHz APP
Tower 118.40 MHz TWR
Approach 129.69 MHz APP
Warning: Do not use this data for real-world aviation or navigation. No guarantee of current accuracy is given.